sensor_id;sensor_type;location;lat;lon;timestamp;P1;durP1;ratioP1;P2;durP2;ratioP2
17494;SDS011;8864;51.970;4.614;2024-02-28T00:01:12;15.02;;;2.10;;
17494;SDS011;8864;51.970;4.614;2024-02-28T00:03:39;4.65;;;2.05;;
17494;SDS011;8864;51.970;4.614;2024-02-28T00:06:06;8.20;;;2.22;;
17494;SDS011;8864;51.970;4.614;2024-02-28T00:08:35;2.28;;;1.63;;
17494;SDS011;8864;51.970;4.614;2024-02-28T00:11:02;4.63;;;1.70;;
17494;SDS011;8864;51.970;4.614;2024-02-28T00:13:29;6.10;;;1.85;;
17494;SDS011;8864;51.970;4.614;2024-02-28T00:15:57;4.18;;;1.70;;
17494;SDS011;8864;51.970;4.614;2024-02-28T00:18:24;5.90;;;1.90;;
17494;SDS011;8864;51.970;4.614;2024-02-28T00:20:50;1.95;;;1.30;;
17494;SDS011;8864;51.970;4.614;2024-02-28T00:23:19;2.17;;;1.40;;
17494;SDS011;8864;51.970;4.614;2024-02-28T00:25:47;3.45;;;1.45;;
17494;SDS011;8864;51.970;4.614;2024-02-28T00:28:14;2.63;;;1.60;;
17494;SDS011;8864;51.970;4.614;2024-02-28T00:30:41;3.38;;;1.90;;
17494;SDS011;8864;51.970;4.614;2024-02-28T00:33:11;4.20;;;1.50;;
17494;SDS011;8864;51.970;4.614;2024-02-28T00:35:39;3.88;;;1.38;;
17494;SDS011;8864;51.970;4.614;2024-02-28T00:38:06;2.38;;;1.23;;
17494;SDS011;8864;51.970;4.614;2024-02-28T00:40:33;4.45;;;1.60;;
17494;SDS011;8864;51.970;4.614;2024-02-28T00:43:01;6.65;;;1.50;;
17494;SDS011;8864;51.970;4.614;2024-02-28T00:45:28;3.25;;;1.30;;
17494;SDS011;8864;51.970;4.614;2024-02-28T00:47:55;3.85;;;1.67;;
17494;SDS011;8864;51.970;4.614;2024-02-28T00:50:22;2.55;;;1.50;;
17494;SDS011;8864;51.970;4.614;2024-02-28T00:52:49;3.08;;;1.20;;
17494;SDS011;8864;51.970;4.614;2024-02-28T00:55:16;3.20;;;1.13;;
17494;SDS011;8864;51.970;4.614;2024-02-28T00:57:43;3.35;;;1.30;;
17494;SDS011;8864;51.970;4.614;2024-02-28T01:00:12;3.20;;;1.30;;
17494;SDS011;8864;51.970;4.614;2024-02-28T01:02:39;3.30;;;1.27;;
17494;SDS011;8864;51.970;4.614;2024-02-28T01:05:07;3.42;;;1.15;;
17494;SDS011;8864;51.970;4.614;2024-02-28T01:07:35;2.53;;;1.27;;
17494;SDS011;8864;51.970;4.614;2024-02-28T01:10:01;5.20;;;1.13;;
17494;SDS011;8864;51.970;4.614;2024-02-28T01:12:29;3.17;;;1.20;;
17494;SDS011;8864;51.970;4.614;2024-02-28T01:14:56;4.13;;;1.15;;
17494;SDS011;8864;51.970;4.614;2024-02-28T01:17:24;2.35;;;1.25;;
17494;SDS011;8864;51.970;4.614;2024-02-28T01:19:51;1.75;;;1.10;;
17494;SDS011;8864;51.970;4.614;2024-02-28T01:22:18;4.03;;;1.10;;
17494;SDS011;8864;51.970;4.614;2024-02-28T01:24:46;1.92;;;1.08;;
17494;SDS011;8864;51.970;4.614;2024-02-28T01:27:12;2.60;;;0.98;;
17494;SDS011;8864;51.970;4.614;2024-02-28T01:29:39;1.77;;;0.95;;
17494;SDS011;8864;51.970;4.614;2024-02-28T01:32:06;3.40;;;1.05;;
17494;SDS011;8864;51.970;4.614;2024-02-28T01:34:35;2.55;;;1.02;;
17494;SDS011;8864;51.970;4.614;2024-02-28T01:37:01;1.58;;;0.90;;
17494;SDS011;8864;51.970;4.614;2024-02-28T01:39:28;1.88;;;0.95;;
17494;SDS011;8864;51.970;4.614;2024-02-28T01:41:56;1.88;;;0.82;;
17494;SDS011;8864;51.970;4.614;2024-02-28T01:44:23;2.08;;;1.15;;
17494;SDS011;8864;51.970;4.614;2024-02-28T01:46:50;2.28;;;0.93;;
17494;SDS011;8864;51.970;4.614;2024-02-28T01:49:19;2.67;;;0.90;;
17494;SDS011;8864;51.970;4.614;2024-02-28T01:51:48;2.80;;;1.30;;
17494;SDS011;8864;51.970;4.614;2024-02-28T01:54:17;1.50;;;1.08;;
17494;SDS011;8864;51.970;4.614;2024-02-28T01:56:45;2.45;;;1.02;;
17494;SDS011;8864;51.970;4.614;2024-02-28T01:59:13;1.58;;;1.00;;
17494;SDS011;8864;51.970;4.614;2024-02-28T02:01:40;1.60;;;0.93;;
17494;SDS011;8864;51.970;4.614;2024-02-28T02:04:07;1.27;;;1.10;;
17494;SDS011;8864;51.970;4.614;2024-02-28T02:06:35;2.47;;;0.98;;
17494;SDS011;8864;51.970;4.614;2024-02-28T02:09:06;2.03;;;0.82;;
17494;SDS011;8864;51.970;4.614;2024-02-28T02:11:33;2.97;;;1.00;;
17494;SDS011;8864;51.970;4.614;2024-02-28T02:14:01;1.65;;;0.82;;
17494;SDS011;8864;51.970;4.614;2024-02-28T02:16:28;1.70;;;0.90;;
17494;SDS011;8864;51.970;4.614;2024-02-28T02:18:56;1.83;;;0.98;;
17494;SDS011;8864;51.970;4.614;2024-02-28T02:21:24;3.85;;;1.00;;
17494;SDS011;8864;51.970;4.614;2024-02-28T02:23:57;2.25;;;0.80;;
17494;SDS011;8864;51.970;4.614;2024-02-28T02:26:24;2.95;;;1.20;;
17494;SDS011;8864;51.970;4.614;2024-02-28T02:28:51;3.05;;;0.75;;
17494;SDS011;8864;51.970;4.614;2024-02-28T02:31:18;2.03;;;1.02;;
17494;SDS011;8864;51.970;4.614;2024-02-28T02:33:46;1.52;;;0.80;;
17494;SDS011;8864;51.970;4.614;2024-02-28T02:36:13;1.90;;;0.98;;
17494;SDS011;8864;51.970;4.614;2024-02-28T02:38:40;2.22;;;0.80;;
17494;SDS011;8864;51.970;4.614;2024-02-28T02:41:08;3.80;;;0.95;;
17494;SDS011;8864;51.970;4.614;2024-02-28T02:43:35;2.67;;;0.95;;
17494;SDS011;8864;51.970;4.614;2024-02-28T02:46:02;5.20;;;0.90;;
17494;SDS011;8864;51.970;4.614;2024-02-28T02:48:29;2.90;;;1.00;;
17494;SDS011;8864;51.970;4.614;2024-02-28T02:50:56;1.65;;;0.90;;
17494;SDS011;8864;51.970;4.614;2024-02-28T02:53:23;1.75;;;0.85;;
17494;SDS011;8864;51.970;4.614;2024-02-28T02:55:50;2.80;;;1.13;;
17494;SDS011;8864;51.970;4.614;2024-02-28T02:58:18;1.45;;;0.70;;
17494;SDS011;8864;51.970;4.614;2024-02-28T03:00:45;0.88;;;0.75;;
17494;SDS011;8864;51.970;4.614;2024-02-28T03:03:12;2.72;;;1.10;;
17494;SDS011;8864;51.970;4.614;2024-02-28T03:05:39;1.05;;;0.80;;
17494;SDS011;8864;51.970;4.614;2024-02-28T03:08:06;2.30;;;1.00;;
17494;SDS011;8864;51.970;4.614;2024-02-28T03:10:33;1.92;;;0.90;;
17494;SDS011;8864;51.970;4.614;2024-02-28T03:13:00;3.60;;;1.17;;
17494;SDS011;8864;51.970;4.614;2024-02-28T03:15:29;3.05;;;1.00;;
17494;SDS011;8864;51.970;4.614;2024-02-28T03:17:56;2.05;;;1.10;;
17494;SDS011;8864;51.970;4.614;2024-02-28T03:20:23;4.68;;;0.75;;
17494;SDS011;8864;51.970;4.614;2024-02-28T03:22:50;1.65;;;0.85;;
17494;SDS011;8864;51.970;4.614;2024-02-28T03:25:17;1.55;;;0.90;;
17494;SDS011;8864;51.970;4.614;2024-02-28T03:27:45;4.22;;;1.20;;
17494;SDS011;8864;51.970;4.614;2024-02-28T03:30:12;2.70;;;1.17;;
17494;SDS011;8864;51.970;4.614;2024-02-28T03:32:43;3.85;;;0.82;;
17494;SDS011;8864;51.970;4.614;2024-02-28T03:35:10;3.00;;;0.90;;
17494;SDS011;8864;51.970;4.614;2024-02-28T03:37:37;1.55;;;0.80;;
17494;SDS011;8864;51.970;4.614;2024-02-28T03:40:04;1.38;;;0.85;;
17494;SDS011;8864;51.970;4.614;2024-02-28T03:42:32;4.22;;;1.00;;
17494;SDS011;8864;51.970;4.614;2024-02-28T03:44:59;1.38;;;0.90;;
17494;SDS011;8864;51.970;4.614;2024-02-28T03:47:26;2.92;;;1.17;;
17494;SDS011;8864;51.970;4.614;2024-02-28T03:49:55;2.83;;;1.00;;
17494;SDS011;8864;51.970;4.614;2024-02-28T03:52:22;2.72;;;0.98;;
17494;SDS011;8864;51.970;4.614;2024-02-28T03:54:49;3.03;;;1.30;;
17494;SDS011;8864;51.970;4.614;2024-02-28T03:57:16;1.40;;;0.90;;
17494;SDS011;8864;51.970;4.614;2024-02-28T03:59:43;3.05;;;1.20;;
17494;SDS011;8864;51.970;4.614;2024-02-28T04:02:10;2.85;;;0.98;;
17494;SDS011;8864;51.970;4.614;2024-02-28T04:04:37;2.20;;;0.85;;
17494;SDS011;8864;51.970;4.614;2024-02-28T04:07:05;4.63;;;1.08;;
17494;SDS011;8864;51.970;4.614;2024-02-28T04:09:32;3.40;;;1.02;;
17494;SDS011;8864;51.970;4.614;2024-02-28T04:11:59;2.53;;;0.98;;
17494;SDS011;8864;51.970;4.614;2024-02-28T04:14:26;2.15;;;1.10;;
17494;SDS011;8864;51.970;4.614;2024-02-28T04:16:53;1.60;;;0.90;;
17494;SDS011;8864;51.970;4.614;2024-02-28T04:19:20;5.43;;;1.17;;
17494;SDS011;8864;51.970;4.614;2024-02-28T04:21:47;4.82;;;1.40;;
17494;SDS011;8864;51.970;4.614;2024-02-28T04:24:16;4.20;;;1.50;;
17494;SDS011;8864;51.970;4.614;2024-02-28T04:26:43;7.85;;;1.38;;
17494;SDS011;8864;51.970;4.614;2024-02-28T04:29:10;3.20;;;1.00;;
17494;SDS011;8864;51.970;4.614;2024-02-28T04:31:39;5.85;;;1.40;;
17494;SDS011;8864;51.970;4.614;2024-02-28T04:34:06;3.35;;;1.30;;
17494;SDS011;8864;51.970;4.614;2024-02-28T04:36:33;2.80;;;1.50;;
17494;SDS011;8864;51.970;4.614;2024-02-28T04:39:00;2.65;;;1.58;;
17494;SDS011;8864;51.970;4.614;2024-02-28T04:41:31;3.88;;;1.45;;
17494;SDS011;8864;51.970;4.614;2024-02-28T04:43:58;5.05;;;1.70;;
17494;SDS011;8864;51.970;4.614;2024-02-28T04:46:25;2.45;;;1.48;;
17494;SDS011;8864;51.970;4.614;2024-02-28T04:48:51;3.42;;;1.60;;
17494;SDS011;8864;51.970;4.614;2024-02-28T04:51:18;2.38;;;1.60;;
17494;SDS011;8864;51.970;4.614;2024-02-28T04:53:46;4.30;;;1.92;;
17494;SDS011;8864;51.970;4.614;2024-02-28T04:56:13;3.03;;;1.48;;
17494;SDS011;8864;51.970;4.614;2024-02-28T04:58:41;4.15;;;1.80;;
17494;SDS011;8864;51.970;4.614;2024-02-28T05:01:08;2.00;;;1.33;;
17494;SDS011;8864;51.970;4.614;2024-02-28T05:03:35;4.03;;;1.73;;
17494;SDS011;8864;51.970;4.614;2024-02-28T05:06:02;2.33;;;1.35;;
17494;SDS011;8864;51.970;4.614;2024-02-28T05:08:29;3.10;;;1.90;;
17494;SDS011;8864;51.970;4.614;2024-02-28T05:10:56;4.45;;;1.70;;
17494;SDS011;8864;51.970;4.614;2024-02-28T05:13:23;2.55;;;1.67;;
17494;SDS011;8864;51.970;4.614;2024-02-28T05:15:51;2.75;;;1.55;;
17494;SDS011;8864;51.970;4.614;2024-02-28T05:18:18;2.58;;;1.73;;
17494;SDS011;8864;51.970;4.614;2024-02-28T05:20:46;4.13;;;2.15;;
17494;SDS011;8864;51.970;4.614;2024-02-28T05:23:13;3.63;;;1.75;;
17494;SDS011;8864;51.970;4.614;2024-02-28T05:25:40;2.67;;;1.77;;
17494;SDS011;8864;51.970;4.614;2024-02-28T05:28:06;3.97;;;1.92;;
17494;SDS011;8864;51.970;4.614;2024-02-28T05:30:33;5.32;;;1.80;;
17494;SDS011;8864;51.970;4.614;2024-02-28T05:33:02;2.90;;;1.90;;
17494;SDS011;8864;51.970;4.614;2024-02-28T05:35:29;3.45;;;1.88;;
17494;SDS011;8864;51.970;4.614;2024-02-28T05:37:56;6.65;;;2.38;;
17494;SDS011;8864;51.970;4.614;2024-02-28T05:40:23;2.40;;;1.80;;
17494;SDS011;8864;51.970;4.614;2024-02-28T05:42:50;5.32;;;2.28;;
17494;SDS011;8864;51.970;4.614;2024-02-28T05:45:17;4.50;;;1.80;;
17494;SDS011;8864;51.970;4.614;2024-02-28T05:47:44;4.80;;;1.88;;
17494;SDS011;8864;51.970;4.614;2024-02-28T05:50:13;5.15;;;2.20;;
17494;SDS011;8864;51.970;4.614;2024-02-28T05:52:41;3.80;;;1.90;;
17494;SDS011;8864;51.970;4.614;2024-02-28T05:55:08;3.88;;;2.20;;
17494;SDS011;8864;51.970;4.614;2024-02-28T05:57:35;4.28;;;2.28;;
17494;SDS011;8864;51.970;4.614;2024-02-28T06:00:04;3.85;;;1.83;;
17494;SDS011;8864;51.970;4.614;2024-02-28T06:02:35;3.08;;;1.98;;
17494;SDS011;8864;51.970;4.614;2024-02-28T06:05:02;5.45;;;1.85;;
17494;SDS011;8864;51.970;4.614;2024-02-28T06:07:31;4.63;;;1.90;;
17494;SDS011;8864;51.970;4.614;2024-02-28T06:09:58;3.72;;;1.90;;
17494;SDS011;8864;51.970;4.614;2024-02-28T06:12:26;4.32;;;2.25;;
17494;SDS011;8864;51.970;4.614;2024-02-28T06:14:52;3.15;;;1.90;;
17494;SDS011;8864;51.970;4.614;2024-02-28T06:17:20;3.50;;;2.00;;
17494;SDS011;8864;51.970;4.614;2024-02-28T06:19:47;3.70;;;1.80;;
17494;SDS011;8864;51.970;4.614;2024-02-28T06:22:13;4.75;;;2.22;;
17494;SDS011;8864;51.970;4.614;2024-02-28T06:24:42;3.15;;;1.90;;
17494;SDS011;8864;51.970;4.614;2024-02-28T06:27:09;5.15;;;2.00;;
17494;SDS011;8864;51.970;4.614;2024-02-28T06:29:38;4.57;;;2.05;;
17494;SDS011;8864;51.970;4.614;2024-02-28T06:32:05;4.03;;;1.92;;
17494;SDS011;8864;51.970;4.614;2024-02-28T06:34:32;3.85;;;2.10;;
17494;SDS011;8864;51.970;4.614;2024-02-28T06:37:00;5.72;;;2.20;;
17494;SDS011;8864;51.970;4.614;2024-02-28T06:39:27;4.10;;;1.95;;
17494;SDS011;8864;51.970;4.614;2024-02-28T06:41:55;4.40;;;2.10;;
17494;SDS011;8864;51.970;4.614;2024-02-28T06:44:22;4.93;;;2.05;;
17494;SDS011;8864;51.970;4.614;2024-02-28T06:46:49;7.03;;;2.40;;
17494;SDS011;8864;51.970;4.614;2024-02-28T06:49:16;7.53;;;2.38;;
17494;SDS011;8864;51.970;4.614;2024-02-28T06:51:43;6.18;;;2.30;;
17494;SDS011;8864;51.970;4.614;2024-02-28T06:54:10;3.42;;;2.05;;
17494;SDS011;8864;51.970;4.614;2024-02-28T06:56:37;4.13;;;2.05;;
17494;SDS011;8864;51.970;4.614;2024-02-28T06:59:05;5.53;;;2.40;;
17494;SDS011;8864;51.970;4.614;2024-02-28T07:01:32;3.33;;;2.00;;
17494;SDS011;8864;51.970;4.614;2024-02-28T07:03:59;3.85;;;2.10;;
17494;SDS011;8864;51.970;4.614;2024-02-28T07:06:26;5.57;;;2.38;;
17494;SDS011;8864;51.970;4.614;2024-02-28T07:08:53;5.25;;;2.20;;
17494;SDS011;8864;51.970;4.614;2024-02-28T07:11:20;4.75;;;2.05;;
17494;SDS011;8864;51.970;4.614;2024-02-28T07:13:47;3.85;;;2.33;;
17494;SDS011;8864;51.970;4.614;2024-02-28T07:16:16;6.05;;;1.98;;
17494;SDS011;8864;51.970;4.614;2024-02-28T07:18:42;6.05;;;2.60;;
17494;SDS011;8864;51.970;4.614;2024-02-28T07:21:09;4.00;;;1.90;;
17494;SDS011;8864;51.970;4.614;2024-02-28T07:23:38;7.10;;;2.50;;
17494;SDS011;8864;51.970;4.614;2024-02-28T07:26:06;4.72;;;2.38;;
17494;SDS011;8864;51.970;4.614;2024-02-28T07:28:33;4.30;;;2.20;;
17494;SDS011;8864;51.970;4.614;2024-02-28T07:31:00;20.83;;;4.50;;
17494;SDS011;8864;51.970;4.614;2024-02-28T07:33:28;16.85;;;3.42;;
17494;SDS011;8864;51.970;4.614;2024-02-28T07:35:55;15.55;;;2.80;;
17494;SDS011;8864;51.970;4.614;2024-02-28T07:38:25;19.55;;;3.80;;
17494;SDS011;8864;51.970;4.614;2024-02-28T07:40:53;29.50;;;5.47;;
17494;SDS011;8864;51.970;4.614;2024-02-28T07:43:20;27.27;;;4.75;;
17494;SDS011;8864;51.970;4.614;2024-02-28T07:45:47;23.83;;;3.80;;
17494;SDS011;8864;51.970;4.614;2024-02-28T07:48:14;16.70;;;3.58;;
17494;SDS011;8864;51.970;4.614;2024-02-28T07:50:44;17.35;;;3.83;;
17494;SDS011;8864;51.970;4.614;2024-02-28T07:53:11;16.98;;;3.53;;
17494;SDS011;8864;51.970;4.614;2024-02-28T07:55:38;15.80;;;3.78;;
17494;SDS011;8864;51.970;4.614;2024-02-28T07:58:05;16.15;;;3.85;;
17494;SDS011;8864;51.970;4.614;2024-02-28T08:00:34;11.75;;;3.30;;
17494;SDS011;8864;51.970;4.614;2024-02-28T08:03:01;11.90;;;3.20;;
17494;SDS011;8864;51.970;4.614;2024-02-28T08:05:28;15.75;;;3.10;;
17494;SDS011;8864;51.970;4.614;2024-02-28T08:07:58;13.23;;;3.50;;
17494;SDS011;8864;51.970;4.614;2024-02-28T08:10:26;10.48;;;3.25;;
17494;SDS011;8864;51.970;4.614;2024-02-28T08:12:53;12.02;;;2.97;;
17494;SDS011;8864;51.970;4.614;2024-02-28T08:15:20;12.65;;;2.95;;
17494;SDS011;8864;51.970;4.614;2024-02-28T08:17:47;8.80;;;2.75;;
17494;SDS011;8864;51.970;4.614;2024-02-28T08:20:14;10.32;;;2.78;;
17494;SDS011;8864;51.970;4.614;2024-02-28T08:22:42;7.38;;;2.63;;
17494;SDS011;8864;51.970;4.614;2024-02-28T08:25:10;12.73;;;3.30;;
17494;SDS011;8864;51.970;4.614;2024-02-28T08:27:37;9.95;;;2.85;;
17494;SDS011;8864;51.970;4.614;2024-02-28T08:30:05;8.35;;;2.75;;
17494;SDS011;8864;51.970;4.614;2024-02-28T08:32:32;8.63;;;2.95;;
17494;SDS011;8864;51.970;4.614;2024-02-28T08:34:59;8.30;;;2.78;;
17494;SDS011;8864;51.970;4.614;2024-02-28T08:37:26;7.72;;;3.00;;
17494;SDS011;8864;51.970;4.614;2024-02-28T08:39:54;8.45;;;2.47;;
17494;SDS011;8864;51.970;4.614;2024-02-28T08:42:24;7.55;;;2.75;;
17494;SDS011;8864;51.970;4.614;2024-02-28T08:44:51;12.00;;;3.00;;
17494;SDS011;8864;51.970;4.614;2024-02-28T08:47:22;8.40;;;2.58;;
17494;SDS011;8864;51.970;4.614;2024-02-28T08:49:50;9.15;;;2.70;;
17494;SDS011;8864;51.970;4.614;2024-02-28T08:52:17;8.25;;;2.55;;
17494;SDS011;8864;51.970;4.614;2024-02-28T08:54:44;5.40;;;2.20;;
17494;SDS011;8864;51.970;4.614;2024-02-28T08:57:12;7.32;;;2.45;;
17494;SDS011;8864;51.970;4.614;2024-02-28T08:59:41;7.72;;;2.67;;
17494;SDS011;8864;51.970;4.614;2024-02-28T09:02:08;6.45;;;2.47;;
17494;SDS011;8864;51.970;4.614;2024-02-28T09:04:36;6.45;;;2.35;;
17494;SDS011;8864;51.970;4.614;2024-02-28T09:07:03;5.57;;;2.50;;
17494;SDS011;8864;51.970;4.614;2024-02-28T09:09:30;6.38;;;2.40;;
17494;SDS011;8864;51.970;4.614;2024-02-28T09:12:01;6.75;;;2.30;;
17494;SDS011;8864;51.970;4.614;2024-02-28T09:14:29;5.82;;;2.17;;
17494;SDS011;8864;51.970;4.614;2024-02-28T09:16:58;7.90;;;2.55;;
17494;SDS011;8864;51.970;4.614;2024-02-28T09:19:28;5.60;;;2.10;;
17494;SDS011;8864;51.970;4.614;2024-02-28T09:21:55;7.57;;;2.55;;
17494;SDS011;8864;51.970;4.614;2024-02-28T09:24:22;7.75;;;2.28;;
17494;SDS011;8864;51.970;4.614;2024-02-28T09:26:49;4.15;;;2.08;;
17494;SDS011;8864;51.970;4.614;2024-02-28T09:29:16;5.43;;;2.17;;
17494;SDS011;8864;51.970;4.614;2024-02-28T09:31:43;6.10;;;2.05;;
17494;SDS011;8864;51.970;4.614;2024-02-28T09:34:12;5.88;;;2.10;;
17494;SDS011;8864;51.970;4.614;2024-02-28T09:36:40;4.22;;;2.13;;
17494;SDS011;8864;51.970;4.614;2024-02-28T09:39:08;6.80;;;2.83;;
17494;SDS011;8864;51.970;4.614;2024-02-28T09:41:35;6.13;;;2.35;;
17494;SDS011;8864;51.970;4.614;2024-02-28T09:44:02;4.88;;;2.13;;
17494;SDS011;8864;51.970;4.614;2024-02-28T09:46:29;6.28;;;2.05;;
17494;SDS011;8864;51.970;4.614;2024-02-28T09:48:59;5.93;;;2.45;;
17494;SDS011;8864;51.970;4.614;2024-02-28T09:51:31;4.57;;;1.98;;
17494;SDS011;8864;51.970;4.614;2024-02-28T09:54:00;5.68;;;2.33;;
17494;SDS011;8864;51.970;4.614;2024-02-28T09:56:28;7.30;;;2.38;;
17494;SDS011;8864;51.970;4.614;2024-02-28T09:58:56;4.85;;;2.20;;
17494;SDS011;8864;51.970;4.614;2024-02-28T10:01:24;10.10;;;2.97;;
17494;SDS011;8864;51.970;4.614;2024-02-28T10:03:52;6.72;;;2.45;;
17494;SDS011;8864;51.970;4.614;2024-02-28T10:06:21;3.35;;;2.10;;
17494;SDS011;8864;51.970;4.614;2024-02-28T10:08:50;4.90;;;2.20;;
17494;SDS011;8864;51.970;4.614;2024-02-28T10:11:18;7.50;;;2.60;;
17494;SDS011;8864;51.970;4.614;2024-02-28T10:13:46;5.72;;;2.40;;
17494;SDS011;8864;51.970;4.614;2024-02-28T10:16:13;6.78;;;2.67;;
17494;SDS011;8864;51.970;4.614;2024-02-28T10:18:41;5.28;;;2.13;;
17494;SDS011;8864;51.970;4.614;2024-02-28T10:21:08;4.50;;;2.30;;
17494;SDS011;8864;51.970;4.614;2024-02-28T10:23:37;8.40;;;2.72;;
17494;SDS011;8864;51.970;4.614;2024-02-28T10:26:08;4.13;;;2.25;;
17494;SDS011;8864;51.970;4.614;2024-02-28T10:28:36;7.32;;;2.53;;
17494;SDS011;8864;51.970;4.614;2024-02-28T10:31:03;5.10;;;2.50;;
17494;SDS011;8864;51.970;4.614;2024-02-28T10:33:30;5.93;;;2.45;;
17494;SDS011;8864;51.970;4.614;2024-02-28T10:35:58;5.03;;;2.20;;
17494;SDS011;8864;51.970;4.614;2024-02-28T10:38:26;4.95;;;2.20;;
17494;SDS011;8864;51.970;4.614;2024-02-28T10:40:53;6.43;;;2.53;;
17494;SDS011;8864;51.970;4.614;2024-02-28T10:43:22;4.80;;;2.28;;
17494;SDS011;8864;51.970;4.614;2024-02-28T10:45:52;5.35;;;2.63;;
17494;SDS011;8864;51.970;4.614;2024-02-28T10:48:22;6.97;;;2.25;;
17494;SDS011;8864;51.970;4.614;2024-02-28T10:50:50;3.15;;;1.85;;
17494;SDS011;8864;51.970;4.614;2024-02-28T10:53:20;7.13;;;1.90;;
17494;SDS011;8864;51.970;4.614;2024-02-28T10:55:49;5.20;;;1.98;;
17494;SDS011;8864;51.970;4.614;2024-02-28T10:58:23;4.00;;;2.03;;
17494;SDS011;8864;51.970;4.614;2024-02-28T11:00:53;5.18;;;2.40;;
17494;SDS011;8864;51.970;4.614;2024-02-28T11:03:20;2.83;;;1.88;;
17494;SDS011;8864;51.970;4.614;2024-02-28T11:05:47;4.53;;;2.00;;
17494;SDS011;8864;51.970;4.614;2024-02-28T11:08:20;7.30;;;2.63;;
17494;SDS011;8864;51.970;4.614;2024-02-28T11:10:54;4.57;;;2.05;;
17494;SDS011;8864;51.970;4.614;2024-02-28T11:13:23;6.25;;;2.67;;
17494;SDS011;8864;51.970;4.614;2024-02-28T11:15:51;4.30;;;2.05;;
17494;SDS011;8864;51.970;4.614;2024-02-28T11:18:18;6.97;;;2.65;;
17494;SDS011;8864;51.970;4.614;2024-02-28T11:20:45;7.10;;;2.45;;
17494;SDS011;8864;51.970;4.614;2024-02-28T11:23:14;3.63;;;2.22;;
17494;SDS011;8864;51.970;4.614;2024-02-28T11:25:43;6.85;;;2.17;;
17494;SDS011;8864;51.970;4.614;2024-02-28T11:28:10;5.55;;;2.55;;
17494;SDS011;8864;51.970;4.614;2024-02-28T11:30:38;7.60;;;2.42;;
17494;SDS011;8864;51.970;4.614;2024-02-28T11:33:06;4.93;;;2.60;;
17494;SDS011;8864;51.970;4.614;2024-02-28T11:35:35;3.88;;;2.22;;
17494;SDS011;8864;51.970;4.614;2024-02-28T11:38:02;7.05;;;2.65;;
17494;SDS011;8864;51.970;4.614;2024-02-28T11:40:32;8.27;;;2.20;;
17494;SDS011;8864;51.970;4.614;2024-02-28T11:42:59;5.05;;;2.67;;
17494;SDS011;8864;51.970;4.614;2024-02-28T11:45:28;5.72;;;2.30;;
17494;SDS011;8864;51.970;4.614;2024-02-28T11:47:58;8.95;;;3.40;;
17494;SDS011;8864;51.970;4.614;2024-02-28T11:50:25;6.72;;;2.78;;
17494;SDS011;8864;51.970;4.614;2024-02-28T11:52:55;7.35;;;2.88;;
17494;SDS011;8864;51.970;4.614;2024-02-28T11:55:24;9.13;;;2.75;;
17494;SDS011;8864;51.970;4.614;2024-02-28T11:57:51;6.60;;;2.97;;
17494;SDS011;8864;51.970;4.614;2024-02-28T12:00:18;4.13;;;2.47;;
17494;SDS011;8864;51.970;4.614;2024-02-28T12:02:45;8.55;;;3.38;;
17494;SDS011;8864;51.970;4.614;2024-02-28T12:05:14;8.07;;;3.03;;
17494;SDS011;8864;51.970;4.614;2024-02-28T12:07:41;7.88;;;3.08;;
17494;SDS011;8864;51.970;4.614;2024-02-28T12:10:08;6.45;;;3.13;;
17494;SDS011;8864;51.970;4.614;2024-02-28T12:12:36;6.55;;;3.30;;
17494;SDS011;8864;51.970;4.614;2024-02-28T12:15:05;6.78;;;3.05;;
17494;SDS011;8864;51.970;4.614;2024-02-28T12:17:33;7.88;;;3.63;;
17494;SDS011;8864;51.970;4.614;2024-02-28T12:20:02;6.80;;;3.38;;
17494;SDS011;8864;51.970;4.614;2024-02-28T12:22:32;6.85;;;3.40;;
17494;SDS011;8864;51.970;4.614;2024-02-28T12:24:59;7.35;;;3.95;;
17494;SDS011;8864;51.970;4.614;2024-02-28T12:27:29;7.30;;;4.20;;
17494;SDS011;8864;51.970;4.614;2024-02-28T12:29:57;7.25;;;4.28;;
17494;SDS011;8864;51.970;4.614;2024-02-28T12:32:24;11.15;;;5.13;;
17494;SDS011;8864;51.970;4.614;2024-02-28T12:34:51;12.88;;;5.18;;
17494;SDS011;8864;51.970;4.614;2024-02-28T12:37:19;8.68;;;4.93;;
17494;SDS011;8864;51.970;4.614;2024-02-28T12:39:47;7.90;;;4.35;;
17494;SDS011;8864;51.970;4.614;2024-02-28T12:42:16;8.88;;;5.07;;
17494;SDS011;8864;51.970;4.614;2024-02-28T12:44:43;12.10;;;4.63;;
17494;SDS011;8864;51.970;4.614;2024-02-28T12:47:11;11.60;;;4.53;;
17494;SDS011;8864;51.970;4.614;2024-02-28T12:49:38;9.18;;;4.25;;
17494;SDS011;8864;51.970;4.614;2024-02-28T12:52:05;7.80;;;4.45;;
17494;SDS011;8864;51.970;4.614;2024-02-28T12:54:32;9.10;;;4.00;;
17494;SDS011;8864;51.970;4.614;2024-02-28T12:57:01;11.73;;;4.25;;
17494;SDS011;8864;51.970;4.614;2024-02-28T12:59:30;7.95;;;3.30;;
17494;SDS011;8864;51.970;4.614;2024-02-28T13:01:58;6.35;;;3.45;;
17494;SDS011;8864;51.970;4.614;2024-02-28T13:04:25;7.60;;;3.35;;
17494;SDS011;8864;51.970;4.614;2024-02-28T13:06:53;6.32;;;3.42;;
17494;SDS011;8864;51.970;4.614;2024-02-28T13:09:20;6.88;;;3.60;;
17494;SDS011;8864;51.970;4.614;2024-02-28T13:11:48;8.98;;;3.33;;
17494;SDS011;8864;51.970;4.614;2024-02-28T13:14:17;6.55;;;3.13;;
17494;SDS011;8864;51.970;4.614;2024-02-28T13:16:44;5.97;;;3.15;;
17494;SDS011;8864;51.970;4.614;2024-02-28T13:19:11;6.10;;;3.10;;
17494;SDS011;8864;51.970;4.614;2024-02-28T13:21:38;5.82;;;3.08;;
17494;SDS011;8864;51.970;4.614;2024-02-28T13:24:06;7.30;;;3.42;;
17494;SDS011;8864;51.970;4.614;2024-02-28T13:26:33;7.13;;;3.45;;
17494;SDS011;8864;51.970;4.614;2024-02-28T13:29:00;7.60;;;3.42;;
17494;SDS011;8864;51.970;4.614;2024-02-28T13:31:28;6.38;;;2.95;;
17494;SDS011;8864;51.970;4.614;2024-02-28T13:33:55;4.78;;;2.90;;
17494;SDS011;8864;51.970;4.614;2024-02-28T13:36:22;5.22;;;3.17;;
17494;SDS011;8864;51.970;4.614;2024-02-28T13:38:49;4.50;;;2.70;;
17494;SDS011;8864;51.970;4.614;2024-02-28T13:41:17;5.20;;;2.50;;
17494;SDS011;8864;51.970;4.614;2024-02-28T13:43:44;6.75;;;2.72;;
17494;SDS011;8864;51.970;4.614;2024-02-28T13:46:10;6.05;;;3.05;;
17494;SDS011;8864;51.970;4.614;2024-02-28T13:48:41;6.13;;;3.17;;
17494;SDS011;8864;51.970;4.614;2024-02-28T13:51:08;3.40;;;2.60;;
17494;SDS011;8864;51.970;4.614;2024-02-28T13:53:36;4.43;;;2.63;;
17494;SDS011;8864;51.970;4.614;2024-02-28T13:56:03;5.30;;;2.88;;
17494;SDS011;8864;51.970;4.614;2024-02-28T13:58:32;5.75;;;2.55;;
17494;SDS011;8864;51.970;4.614;2024-02-28T14:00:58;3.92;;;2.45;;
17494;SDS011;8864;51.970;4.614;2024-02-28T14:03:26;5.90;;;2.67;;
17494;SDS011;8864;51.970;4.614;2024-02-28T14:05:54;5.03;;;2.55;;
17494;SDS011;8864;51.970;4.614;2024-02-28T14:08:22;3.83;;;2.40;;
17494;SDS011;8864;51.970;4.614;2024-02-28T14:10:48;5.57;;;2.90;;
17494;SDS011;8864;51.970;4.614;2024-02-28T14:13:16;6.00;;;3.15;;
17494;SDS011;8864;51.970;4.614;2024-02-28T14:15:43;4.18;;;2.67;;
17494;SDS011;8864;51.970;4.614;2024-02-28T14:18:12;5.20;;;3.00;;
17494;SDS011;8864;51.970;4.614;2024-02-28T14:20:39;3.15;;;2.40;;
17494;SDS011;8864;51.970;4.614;2024-02-28T14:23:08;4.38;;;2.70;;
17494;SDS011;8864;51.970;4.614;2024-02-28T14:25:36;4.72;;;2.22;;
17494;SDS011;8864;51.970;4.614;2024-02-28T14:28:03;6.95;;;3.03;;
17494;SDS011;8864;51.970;4.614;2024-02-28T14:30:30;3.95;;;2.60;;
17494;SDS011;8864;51.970;4.614;2024-02-28T14:32:57;5.18;;;2.65;;
17494;SDS011;8864;51.970;4.614;2024-02-28T14:35:24;4.32;;;2.58;;
17494;SDS011;8864;51.970;4.614;2024-02-28T14:37:51;3.75;;;2.25;;
17494;SDS011;8864;51.970;4.614;2024-02-28T14:40:21;4.10;;;2.53;;
17494;SDS011;8864;51.970;4.614;2024-02-28T14:42:47;4.43;;;2.60;;
17494;SDS011;8864;51.970;4.614;2024-02-28T14:45:15;3.15;;;2.15;;
17494;SDS011;8864;51.970;4.614;2024-02-28T14:47:42;4.13;;;2.35;;
17494;SDS011;8864;51.970;4.614;2024-02-28T14:50:10;4.30;;;2.47;;
17494;SDS011;8864;51.970;4.614;2024-02-28T14:52:37;4.22;;;2.40;;
17494;SDS011;8864;51.970;4.614;2024-02-28T14:55:05;3.70;;;2.45;;
17494;SDS011;8864;51.970;4.614;2024-02-28T14:57:35;3.95;;;2.50;;
17494;SDS011;8864;51.970;4.614;2024-02-28T15:00:02;2.22;;;1.95;;
17494;SDS011;8864;51.970;4.614;2024-02-28T15:02:33;3.35;;;2.38;;